A- A+ FrançaisEnglishEspañol中国

le plus proche LFBT Tarbes-Lourdes-PyrénéesLFPB Paris-Le-Bourget LFSB Basle-Mulhouse LFBC Cazaux

manche à air

La météo aéronautique pour les pilotes, la préparation du vol avec les METAR (METeorological Aerodrome Report, message d'observation des conditions météorologiques pour l'aviation) et Les TAF (Terminal Aerodrome Forecast : message de prévision à court terme des conditions météorologiques pour l'aviation). Et les autres ressources comme les VAC (Visual Approch Chart) et les NOTAM (Notice To Airman) pour préprer les vols.

Aéroport Isafjordur (Islande) / OACI BIIS/ IATA IFJ

L'altitude de l'aéroport Isafjordur est de 2 m=7 ft. Il est situé à proximité de Ísafjörður (Islande). La météo générale à 5 jours est disponible pour Vesturland situé à 157.4 km.

METAR de l'aéroport Isafjordur - BIIS

BIIS 291100Z VRB03KT CAVOK 03/M01 Q1018

Décodage du METAR de l'aéroport Isafjordur (IS)

METAR émis par BIIS le dimanche 29 septembre 2019 à 11:00 heure TU. Attention ce METAR est obsolète car il a été émis il y a 12 heure et 41 minutes.

La visibilité est de supérieure à 10 km=supérieure à 6.2 sm.

La température est de 3°C=37 °F et le point rosée est de -1°C=30 °F . Ce qui correspond à 75% d'humidité relative.

Le QNH est de 1018 hPa=30.06 inHg

Vent de 3 kt=6 km/h, orienté à °.

Pas de nuages.

TAF de l'aéroport Isafjordur - BIIS

BIIS 291101Z 2911/2920 13005KT CAVOK

BIIS 291101Z 2911/2920 13005KT visibilité supérieure à 10km, aucun nuage à une hauteur inférieure à 5000 ft ou sous l'altitude minimale de secteur et aucun cumulonimbus ou cumulus bourgeonnant, quelle que soit leur altitude

Aéroport à proximité de Isafjordur

Météo générale à 5 jours à Vesturland (157.4 km)BIHT Aéroport Holt (15 km)BIID Aéroport Ingjaldssandur (25 km)BIBI Aéroport Bæir (26 km)BITE Aéroport Thingeyri (28 km)BIRS Aéroport Reykjanes (36 km)BIHS Aéroport Hrafnseyri (37 km)

VAC de l'aéroport Isafjordur - BIIS

La carte d'approche à vue (VAC Visual Approah Chart) est fournie sans aucune garantie de son actualité. Le pilote est le seul responsable de la vérification de sa validité avant de l'utiliser opérationnellement pour préparer un vol ou l'utiliser lors de sa navigation.

VAC de BIIS

Vue aérienne de l'aéroport Isafjordur

NOTAM de l'aéroport Isafjordur

Les NOTAM sont fournis sans aucune garantie de leur actualité. Le pilote est le seul responsable de la vérification de sa validité avant de l'utiliser opérationnellement pour préparer un vol ou l'utiliser lors de sa navigation.

Pas de NOTAM

Sources des données